sensor_id;sensor_type;location;lat;lon;timestamp;temperature;humidity
9998;DHT22;5038;53.064;8.624;2023-02-01T00:00:53;6.20;99.90
9998;DHT22;5038;53.064;8.624;2023-02-01T00:03:23;6.10;99.90
9998;DHT22;5038;53.064;8.624;2023-02-01T00:05:57;6.20;99.90
9998;DHT22;5038;53.064;8.624;2023-02-01T00:08:26;6.20;99.90
9998;DHT22;5038;53.064;8.624;2023-02-01T00:11:00;6.20;99.90
9998;DHT22;5038;53.064;8.624;2023-02-01T00:13:29;6.20;99.90
9998;DHT22;5038;53.064;8.624;2023-02-01T00:16:04;6.20;99.90
9998;DHT22;5038;53.064;8.624;2023-02-01T00:18:35;6.20;99.90
9998;DHT22;5038;53.064;8.624;2023-02-01T00:21:04;6.20;99.90
9998;DHT22;5038;53.064;8.624;2023-02-01T00:23:32;6.20;99.90
9998;DHT22;5038;53.064;8.624;2023-02-01T00:26:02;6.20;99.90
9998;DHT22;5038;53.064;8.624;2023-02-01T00:28:30;6.20;99.90
9998;DHT22;5038;53.064;8.624;2023-02-01T00:30:59;6.20;99.90
9998;DHT22;5038;53.064;8.624;2023-02-01T00:33:28;6.20;99.90
9998;DHT22;5038;53.064;8.624;2023-02-01T00:35:58;6.30;99.90
9998;DHT22;5038;53.064;8.624;2023-02-01T00:38:26;6.30;99.90
9998;DHT22;5038;53.064;8.624;2023-02-01T00:40:54;6.30;99.90
9998;DHT22;5038;53.064;8.624;2023-02-01T00:43:23;6.30;99.90
9998;DHT22;5038;53.064;8.624;2023-02-01T00:45:51;6.30;99.90
9998;DHT22;5038;53.064;8.624;2023-02-01T00:48:19;6.30;99.90
9998;DHT22;5038;53.064;8.624;2023-02-01T00:50:47;6.20;99.90
9998;DHT22;5038;53.064;8.624;2023-02-01T00:53:17;6.30;99.90
9998;DHT22;5038;53.064;8.624;2023-02-01T00:55:45;6.30;99.90
9998;DHT22;5038;53.064;8.624;2023-02-01T00:58:14;6.20;99.90
9998;DHT22;5038;53.064;8.624;2023-02-01T01:00:42;6.30;99.90
9998;DHT22;5038;53.064;8.624;2023-02-01T01:03:10;6.30;99.90
9998;DHT22;5038;53.064;8.624;2023-02-01T01:05:45;6.30;99.90
9998;DHT22;5038;53.064;8.624;2023-02-01T01:08:14;6.30;99.90
9998;DHT22;5038;53.064;8.624;2023-02-01T01:10:43;6.30;99.90
9998;DHT22;5038;53.064;8.624;2023-02-01T01:13:12;6.30;99.90
9998;DHT22;5038;53.064;8.624;2023-02-01T01:15:40;6.30;99.90
9998;DHT22;5038;53.064;8.624;2023-02-01T01:18:10;6.30;99.90
9998;DHT22;5038;53.064;8.624;2023-02-01T01:20:40;6.30;99.90
9998;DHT22;5038;53.064;8.624;2023-02-01T01:23:09;6.30;99.90
9998;DHT22;5038;53.064;8.624;2023-02-01T01:25:38;6.30;99.90
9998;DHT22;5038;53.064;8.624;2023-02-01T01:28:07;6.30;99.90
9998;DHT22;5038;53.064;8.624;2023-02-01T01:30:35;6.30;99.90
9998;DHT22;5038;53.064;8.624;2023-02-01T01:33:04;6.30;99.90
9998;DHT22;5038;53.064;8.624;2023-02-01T01:35:32;6.30;99.90
9998;DHT22;5038;53.064;8.624;2023-02-01T01:38:01;6.30;99.90
9998;DHT22;5038;53.064;8.624;2023-02-01T01:40:30;6.30;99.90
9998;DHT22;5038;53.064;8.624;2023-02-01T01:42:59;6.30;99.90
9998;DHT22;5038;53.064;8.624;2023-02-01T01:45:30;6.30;99.90
9998;DHT22;5038;53.064;8.624;2023-02-01T01:48:01;6.30;99.90
9998;DHT22;5038;53.064;8.624;2023-02-01T01:50:35;6.30;99.90
9998;DHT22;5038;53.064;8.624;2023-02-01T01:53:08;6.30;99.90
9998;DHT22;5038;53.064;8.624;2023-02-01T01:55:39;6.30;99.90
9998;DHT22;5038;53.064;8.624;2023-02-01T01:58:13;6.30;99.90
9998;DHT22;5038;53.064;8.624;2023-02-01T02:00:44;6.30;99.90
9998;DHT22;5038;53.064;8.624;2023-02-01T02:03:16;6.30;99.90
9998;DHT22;5038;53.064;8.624;2023-02-01T02:05:46;6.30;99.90
9998;DHT22;5038;53.064;8.624;2023-02-01T02:08:16;6.30;99.90
9998;DHT22;5038;53.064;8.624;2023-02-01T02:10:44;6.30;99.90
9998;DHT22;5038;53.064;8.624;2023-02-01T02:13:30;6.30;99.90
9998;DHT22;5038;53.064;8.624;2023-02-01T02:16:15;6.30;99.90
9998;DHT22;5038;53.064;8.624;2023-02-01T02:18:53;6.30;99.90
9998;DHT22;5038;53.064;8.624;2023-02-01T02:21:37;6.30;99.90
9998;DHT22;5038;53.064;8.624;2023-02-01T02:24:39;6.30;99.90
9998;DHT22;5038;53.064;8.624;2023-02-01T02:27:17;6.30;99.90
9998;DHT22;5038;53.064;8.624;2023-02-01T02:33:26;6.30;99.90
9998;DHT22;5038;53.064;8.624;2023-02-01T02:36:07;6.30;99.90
9998;DHT22;5038;53.064;8.624;2023-02-01T02:38:43;6.30;99.90
9998;DHT22;5038;53.064;8.624;2023-02-01T02:41:16;6.30;99.90
9998;DHT22;5038;53.064;8.624;2023-02-01T02:44:11;6.30;99.90
9998;DHT22;5038;53.064;8.624;2023-02-01T02:47:03;6.30;99.90
9998;DHT22;5038;53.064;8.624;2023-02-01T02:49:58;6.30;99.90
9998;DHT22;5038;53.064;8.624;2023-02-01T02:52:50;6.30;99.90
9998;DHT22;5038;53.064;8.624;2023-02-01T02:55:38;6.30;99.90
9998;DHT22;5038;53.064;8.624;2023-02-01T02:58:07;6.30;99.90
9998;DHT22;5038;53.064;8.624;2023-02-01T03:00:56;6.30;99.90
9998;DHT22;5038;53.064;8.624;2023-02-01T03:03:43;6.30;99.90
9998;DHT22;5038;53.064;8.624;2023-02-01T03:06:39;6.30;99.90
9998;DHT22;5038;53.064;8.624;2023-02-01T03:09:11;6.30;99.90
9998;DHT22;5038;53.064;8.624;2023-02-01T03:11:42;6.30;99.90
9998;DHT22;5038;53.064;8.624;2023-02-01T03:14:31;6.30;99.90
9998;DHT22;5038;53.064;8.624;2023-02-01T03:17:05;6.30;99.90
9998;DHT22;5038;53.064;8.624;2023-02-01T03:19:37;6.30;99.90
9998;DHT22;5038;53.064;8.624;2023-02-01T03:22:14;6.30;99.90
9998;DHT22;5038;53.064;8.624;2023-02-01T03:24:45;6.30;99.90
9998;DHT22;5038;53.064;8.624;2023-02-01T03:27:18;6.30;99.90
9998;DHT22;5038;53.064;8.624;2023-02-01T03:29:51;6.30;99.90
9998;DHT22;5038;53.064;8.624;2023-02-01T03:32:22;6.20;99.90
9998;DHT22;5038;53.064;8.624;2023-02-01T03:34:51;6.20;99.90
9998;DHT22;5038;53.064;8.624;2023-02-01T03:37:25;6.20;99.90
9998;DHT22;5038;53.064;8.624;2023-02-01T03:39:57;6.10;99.90
9998;DHT22;5038;53.064;8.624;2023-02-01T03:42:35;6.10;99.90
9998;DHT22;5038;53.064;8.624;2023-02-01T03:45:10;6.10;99.90
9998;DHT22;5038;53.064;8.624;2023-02-01T03:47:43;6.00;99.90
9998;DHT22;5038;53.064;8.624;2023-02-01T03:50:15;6.00;99.90
9998;DHT22;5038;53.064;8.624;2023-02-01T03:52:50;6.00;99.90
9998;DHT22;5038;53.064;8.624;2023-02-01T03:55:21;6.00;99.90
9998;DHT22;5038;53.064;8.624;2023-02-01T03:57:55;5.90;99.90
9998;DHT22;5038;53.064;8.624;2023-02-01T04:00:25;5.90;99.90
9998;DHT22;5038;53.064;8.624;2023-02-01T04:02:55;5.90;99.90
9998;DHT22;5038;53.064;8.624;2023-02-01T04:05:24;5.80;99.90
9998;DHT22;5038;53.064;8.624;2023-02-01T04:07:58;5.80;99.90
9998;DHT22;5038;53.064;8.624;2023-02-01T04:10:27;5.80;99.90
9998;DHT22;5038;53.064;8.624;2023-02-01T04:12:55;5.80;99.90
9998;DHT22;5038;53.064;8.624;2023-02-01T04:15:23;5.80;99.90
9998;DHT22;5038;53.064;8.624;2023-02-01T04:17:51;5.70;99.90
9998;DHT22;5038;53.064;8.624;2023-02-01T04:20:20;5.70;99.90
9998;DHT22;5038;53.064;8.624;2023-02-01T04:22:48;5.70;99.90
9998;DHT22;5038;53.064;8.624;2023-02-01T04:25:18;5.70;99.90
9998;DHT22;5038;53.064;8.624;2023-02-01T04:27:47;5.70;99.90
9998;DHT22;5038;53.064;8.624;2023-02-01T04:30:16;5.70;99.90
9998;DHT22;5038;53.064;8.624;2023-02-01T04:32:44;5.70;99.90
9998;DHT22;5038;53.064;8.624;2023-02-01T04:35:12;5.70;99.90
9998;DHT22;5038;53.064;8.624;2023-02-01T04:37:40;5.70;99.90
9998;DHT22;5038;53.064;8.624;2023-02-01T04:40:09;5.70;99.90
9998;DHT22;5038;53.064;8.624;2023-02-01T04:42:39;5.70;99.90
9998;DHT22;5038;53.064;8.624;2023-02-01T04:45:07;5.70;99.90
9998;DHT22;5038;53.064;8.624;2023-02-01T04:47:36;5.70;99.90
9998;DHT22;5038;53.064;8.624;2023-02-01T04:50:05;5.70;99.90
9998;DHT22;5038;53.064;8.624;2023-02-01T04:52:34;5.70;99.90
9998;DHT22;5038;53.064;8.624;2023-02-01T04:55:03;5.70;99.90
9998;DHT22;5038;53.064;8.624;2023-02-01T04:57:31;5.70;99.90
9998;DHT22;5038;53.064;8.624;2023-02-01T05:00:00;5.70;99.90
9998;DHT22;5038;53.064;8.624;2023-02-01T05:02:28;5.80;99.90
9998;DHT22;5038;53.064;8.624;2023-02-01T05:04:59;5.80;99.90
9998;DHT22;5038;53.064;8.624;2023-02-01T05:07:27;5.80;99.90
9998;DHT22;5038;53.064;8.624;2023-02-01T05:09:55;5.80;99.90
9998;DHT22;5038;53.064;8.624;2023-02-01T05:12:23;5.80;99.90
9998;DHT22;5038;53.064;8.624;2023-02-01T05:15:10;5.80;99.90
9998;DHT22;5038;53.064;8.624;2023-02-01T05:17:38;5.80;99.90
9998;DHT22;5038;53.064;8.624;2023-02-01T05:20:08;5.80;99.90
9998;DHT22;5038;53.064;8.624;2023-02-01T05:22:36;5.80;99.90
9998;DHT22;5038;53.064;8.624;2023-02-01T05:25:05;5.80;99.90
9998;DHT22;5038;53.064;8.624;2023-02-01T05:27:34;5.80;99.90
9998;DHT22;5038;53.064;8.624;2023-02-01T05:30:03;5.80;99.90
9998;DHT22;5038;53.064;8.624;2023-02-01T05:32:33;5.80;99.90
9998;DHT22;5038;53.064;8.624;2023-02-01T05:35:01;5.80;99.90
9998;DHT22;5038;53.064;8.624;2023-02-01T05:37:30;5.70;99.90
9998;DHT22;5038;53.064;8.624;2023-02-01T05:39:58;5.70;99.90
9998;DHT22;5038;53.064;8.624;2023-02-01T05:42:26;5.70;99.90
9998;DHT22;5038;53.064;8.624;2023-02-01T05:44:54;5.70;99.90
9998;DHT22;5038;53.064;8.624;2023-02-01T05:47:22;5.70;99.90
9998;DHT22;5038;53.064;8.624;2023-02-01T05:49:51;5.70;99.90
9998;DHT22;5038;53.064;8.624;2023-02-01T05:52:19;5.70;99.90
9998;DHT22;5038;53.064;8.624;2023-02-01T05:54:47;5.70;99.90
9998;DHT22;5038;53.064;8.624;2023-02-01T05:57:16;5.70;99.90
9998;DHT22;5038;53.064;8.624;2023-02-01T05:59:44;5.70;99.90
9998;DHT22;5038;53.064;8.624;2023-02-01T06:02:12;5.70;99.90
9998;DHT22;5038;53.064;8.624;2023-02-01T06:04:40;5.70;99.90
9998;DHT22;5038;53.064;8.624;2023-02-01T06:07:10;5.70;99.90
9998;DHT22;5038;53.064;8.624;2023-02-01T06:09:38;5.70;99.90
9998;DHT22;5038;53.064;8.624;2023-02-01T06:12:06;5.70;99.90
9998;DHT22;5038;53.064;8.624;2023-02-01T06:14:34;5.70;99.90
9998;DHT22;5038;53.064;8.624;2023-02-01T06:17:03;5.70;99.90
9998;DHT22;5038;53.064;8.624;2023-02-01T06:19:32;5.70;99.90
9998;DHT22;5038;53.064;8.624;2023-02-01T06:22:00;5.80;99.90
9998;DHT22;5038;53.064;8.624;2023-02-01T06:24:30;5.80;99.90
9998;DHT22;5038;53.064;8.624;2023-02-01T06:26:58;5.80;99.90
9998;DHT22;5038;53.064;8.624;2023-02-01T06:29:26;5.80;99.90
9998;DHT22;5038;53.064;8.624;2023-02-01T06:31:54;5.80;99.90
9998;DHT22;5038;53.064;8.624;2023-02-01T06:34:22;5.80;99.90
9998;DHT22;5038;53.064;8.624;2023-02-01T06:36:51;5.80;99.90
9998;DHT22;5038;53.064;8.624;2023-02-01T06:39:19;5.80;99.90
9998;DHT22;5038;53.064;8.624;2023-02-01T06:41:49;5.80;99.90
9998;DHT22;5038;53.064;8.624;2023-02-01T06:44:17;5.80;99.90
9998;DHT22;5038;53.064;8.624;2023-02-01T06:46:45;5.80;99.90
9998;DHT22;5038;53.064;8.624;2023-02-01T06:49:13;5.80;99.90
9998;DHT22;5038;53.064;8.624;2023-02-01T06:51:43;5.80;99.90
9998;DHT22;5038;53.064;8.624;2023-02-01T06:54:12;5.80;99.90
9998;DHT22;5038;53.064;8.624;2023-02-01T06:56:40;5.80;99.90
9998;DHT22;5038;53.064;8.624;2023-02-01T06:59:10;5.80;99.90
9998;DHT22;5038;53.064;8.624;2023-02-01T07:01:41;5.80;99.90
9998;DHT22;5038;53.064;8.624;2023-02-01T07:04:10;5.80;99.90
9998;DHT22;5038;53.064;8.624;2023-02-01T07:06:39;5.80;99.90
9998;DHT22;5038;53.064;8.624;2023-02-01T07:09:07;5.80;99.90
9998;DHT22;5038;53.064;8.624;2023-02-01T07:11:35;5.80;99.90
9998;DHT22;5038;53.064;8.624;2023-02-01T07:14:09;5.90;99.90
9998;DHT22;5038;53.064;8.624;2023-02-01T07:16:37;5.90;99.90
9998;DHT22;5038;53.064;8.624;2023-02-01T07:19:05;5.90;99.90
9998;DHT22;5038;53.064;8.624;2023-02-01T07:21:34;6.00;99.90
9998;DHT22;5038;53.064;8.624;2023-02-01T07:24:03;6.00;99.90
9998;DHT22;5038;53.064;8.624;2023-02-01T07:26:31;6.00;99.90
9998;DHT22;5038;53.064;8.624;2023-02-01T07:28:59;6.00;99.90
9998;DHT22;5038;53.064;8.624;2023-02-01T07:31:28;6.00;99.90
9998;DHT22;5038;53.064;8.624;2023-02-01T07:33:57;6.10;99.90
9998;DHT22;5038;53.064;8.624;2023-02-01T07:36:25;6.10;99.90
9998;DHT22;5038;53.064;8.624;2023-02-01T07:38:53;6.10;99.90
9998;DHT22;5038;53.064;8.624;2023-02-01T07:41:22;6.10;99.90
9998;DHT22;5038;53.064;8.624;2023-02-01T07:43:52;6.10;99.90
9998;DHT22;5038;53.064;8.624;2023-02-01T07:46:21;6.10;99.90
9998;DHT22;5038;53.064;8.624;2023-02-01T07:48:50;6.10;99.90
9998;DHT22;5038;53.064;8.624;2023-02-01T07:51:18;6.10;99.90
9998;DHT22;5038;53.064;8.624;2023-02-01T07:53:47;6.10;99.90
9998;DHT22;5038;53.064;8.624;2023-02-01T07:56:16;6.10;99.90
9998;DHT22;5038;53.064;8.624;2023-02-01T07:58:47;6.10;99.90
9998;DHT22;5038;53.064;8.624;2023-02-01T08:01:16;6.10;99.90
9998;DHT22;5038;53.064;8.624;2023-02-01T08:03:47;6.10;99.90
9998;DHT22;5038;53.064;8.624;2023-02-01T08:06:17;6.00;99.90
9998;DHT22;5038;53.064;8.624;2023-02-01T08:08:47;6.00;99.90
9998;DHT22;5038;53.064;8.624;2023-02-01T08:11:16;6.00;99.90
9998;DHT22;5038;53.064;8.624;2023-02-01T08:13:44;6.10;99.90
9998;DHT22;5038;53.064;8.624;2023-02-01T08:16:14;6.00;99.90
9998;DHT22;5038;53.064;8.624;2023-02-01T08:18:43;6.00;99.90
9998;DHT22;5038;53.064;8.624;2023-02-01T08:21:13;6.10;99.90
9998;DHT22;5038;53.064;8.624;2023-02-01T08:23:44;6.10;99.90
9998;DHT22;5038;53.064;8.624;2023-02-01T08:26:16;6.10;99.90
9998;DHT22;5038;53.064;8.624;2023-02-01T08:28:47;6.10;99.90
9998;DHT22;5038;53.064;8.624;2023-02-01T08:31:18;6.10;99.90
9998;DHT22;5038;53.064;8.624;2023-02-01T08:33:49;6.20;99.90
9998;DHT22;5038;53.064;8.624;2023-02-01T08:36:18;6.20;99.90
9998;DHT22;5038;53.064;8.624;2023-02-01T08:38:48;6.20;99.90
9998;DHT22;5038;53.064;8.624;2023-02-01T08:41:18;6.30;99.90
9998;DHT22;5038;53.064;8.624;2023-02-01T08:43:46;6.30;99.90
9998;DHT22;5038;53.064;8.624;2023-02-01T08:46:16;6.30;99.90
9998;DHT22;5038;53.064;8.624;2023-02-01T08:48:46;6.30;99.90
9998;DHT22;5038;53.064;8.624;2023-02-01T08:51:15;6.30;99.90
9998;DHT22;5038;53.064;8.624;2023-02-01T08:53:43;6.30;99.90
9998;DHT22;5038;53.064;8.624;2023-02-01T08:56:15;6.30;99.90
9998;DHT22;5038;53.064;8.624;2023-02-01T08:58:43;6.30;99.90
9998;DHT22;5038;53.064;8.624;2023-02-01T09:01:13;6.30;99.90
9998;DHT22;5038;53.064;8.624;2023-02-01T09:03:42;6.40;99.90
9998;DHT22;5038;53.064;8.624;2023-02-01T09:06:13;6.40;99.90
9998;DHT22;5038;53.064;8.624;2023-02-01T09:08:41;6.40;99.90
9998;DHT22;5038;53.064;8.624;2023-02-01T09:11:14;6.40;99.90
9998;DHT22;5038;53.064;8.624;2023-02-01T09:13:43;6.40;99.90
9998;DHT22;5038;53.064;8.624;2023-02-01T09:16:11;6.40;99.90
9998;DHT22;5038;53.064;8.624;2023-02-01T09:18:40;6.50;99.90
9998;DHT22;5038;53.064;8.624;2023-02-01T09:21:27;6.50;99.90
9998;DHT22;5038;53.064;8.624;2023-02-01T09:23:56;6.50;99.90
9998;DHT22;5038;53.064;8.624;2023-02-01T09:26:26;6.50;99.90
9998;DHT22;5038;53.064;8.624;2023-02-01T09:28:59;6.50;99.90
9998;DHT22;5038;53.064;8.624;2023-02-01T09:31:28;6.60;99.90
9998;DHT22;5038;53.064;8.624;2023-02-01T09:33:56;6.60;99.90
9998;DHT22;5038;53.064;8.624;2023-02-01T09:36:24;6.60;99.90
9998;DHT22;5038;53.064;8.624;2023-02-01T09:38:55;6.60;99.90
9998;DHT22;5038;53.064;8.624;2023-02-01T09:41:35;6.60;99.90
9998;DHT22;5038;53.064;8.624;2023-02-01T09:44:17;6.70;99.90
9998;DHT22;5038;53.064;8.624;2023-02-01T09:46:46;6.70;99.90
9998;DHT22;5038;53.064;8.624;2023-02-01T09:49:19;6.70;99.90
9998;DHT22;5038;53.064;8.624;2023-02-01T09:51:51;6.80;99.90
9998;DHT22;5038;53.064;8.624;2023-02-01T09:54:22;6.70;99.90
9998;DHT22;5038;53.064;8.624;2023-02-01T09:56:55;6.80;99.90
9998;DHT22;5038;53.064;8.624;2023-02-01T09:59:31;6.80;99.90
9998;DHT22;5038;53.064;8.624;2023-02-01T10:02:02;6.80;99.90
9998;DHT22;5038;53.064;8.624;2023-02-01T10:04:31;6.80;99.90
9998;DHT22;5038;53.064;8.624;2023-02-01T10:07:09;6.80;99.90
9998;DHT22;5038;53.064;8.624;2023-02-01T10:09:48;6.80;99.90
9998;DHT22;5038;53.064;8.624;2023-02-01T10:12:38;6.80;99.90
9998;DHT22;5038;53.064;8.624;2023-02-01T10:15:24;6.80;99.90
9998;DHT22;5038;53.064;8.624;2023-02-01T10:18:05;6.80;99.90
9998;DHT22;5038;53.064;8.624;2023-02-01T10:20:47;6.80;99.90
9998;DHT22;5038;53.064;8.624;2023-02-01T10:23:30;6.80;99.90
9998;DHT22;5038;53.064;8.624;2023-02-01T10:26:05;6.80;99.90
9998;DHT22;5038;53.064;8.624;2023-02-01T10:28:37;6.80;99.90
9998;DHT22;5038;53.064;8.624;2023-02-01T10:31:08;6.80;99.90
9998;DHT22;5038;53.064;8.624;2023-02-01T10:33:41;6.80;99.90
9998;DHT22;5038;53.064;8.624;2023-02-01T10:36:15;6.80;99.90
9998;DHT22;5038;53.064;8.624;2023-02-01T10:38:45;6.70;99.90
9998;DHT22;5038;53.064;8.624;2023-02-01T10:41:15;6.70;99.90
9998;DHT22;5038;53.064;8.624;2023-02-01T10:43:48;6.70;99.90
9998;DHT22;5038;53.064;8.624;2023-02-01T10:46:18;6.70;99.90
9998;DHT22;5038;53.064;8.624;2023-02-01T10:48:47;6.60;99.90
9998;DHT22;5038;53.064;8.624;2023-02-01T10:51:19;6.60;99.90
9998;DHT22;5038;53.064;8.624;2023-02-01T10:53:52;6.60;99.90
9998;DHT22;5038;53.064;8.624;2023-02-01T10:56:23;6.60;99.90
9998;DHT22;5038;53.064;8.624;2023-02-01T10:59:00;6.70;99.90
9998;DHT22;5038;53.064;8.624;2023-02-01T11:01:33;6.60;99.90
9998;DHT22;5038;53.064;8.624;2023-02-01T11:04:03;6.60;99.90
9998;DHT22;5038;53.064;8.624;2023-02-01T11:06:34;6.60;99.90
9998;DHT22;5038;53.064;8.624;2023-02-01T11:09:11;6.60;99.90
9998;DHT22;5038;53.064;8.624;2023-02-01T11:11:55;6.60;99.90
9998;DHT22;5038;53.064;8.624;2023-02-01T11:14:35;6.60;99.90
9998;DHT22;5038;53.064;8.624;2023-02-01T11:17:21;6.60;99.90
9998;DHT22;5038;53.064;8.624;2023-02-01T11:20:00;6.60;99.90
9998;DHT22;5038;53.064;8.624;2023-02-01T11:22:29;6.60;99.90
9998;DHT22;5038;53.064;8.624;2023-02-01T11:24:59;6.60;99.90
9998;DHT22;5038;53.064;8.624;2023-02-01T11:27:28;6.60;99.90
9998;DHT22;5038;53.064;8.624;2023-02-01T11:30:00;6.50;99.90
9998;DHT22;5038;53.064;8.624;2023-02-01T11:32:31;6.50;99.90
9998;DHT22;5038;53.064;8.624;2023-02-01T11:35:02;6.50;99.90
9998;DHT22;5038;53.064;8.624;2023-02-01T11:37:34;6.50;99.90
9998;DHT22;5038;53.064;8.624;2023-02-01T11:40:23;6.40;99.90
9998;DHT22;5038;53.064;8.624;2023-02-01T11:42:57;6.30;99.90
9998;DHT22;5038;53.064;8.624;2023-02-01T11:45:29;6.30;99.90
9998;DHT22;5038;53.064;8.624;2023-02-01T11:47:58;6.30;99.90
9998;DHT22;5038;53.064;8.624;2023-02-01T11:50:34;6.20;99.90
9998;DHT22;5038;53.064;8.624;2023-02-01T11:53:20;6.20;99.90
9998;DHT22;5038;53.064;8.624;2023-02-01T11:55:59;6.20;99.90
9998;DHT22;5038;53.064;8.624;2023-02-01T11:58:42;6.10;99.90
9998;DHT22;5038;53.064;8.624;2023-02-01T12:01:32;6.10;99.90
9998;DHT22;5038;53.064;8.624;2023-02-01T12:04:30;6.10;99.90
9998;DHT22;5038;53.064;8.624;2023-02-01T12:07:12;6.10;99.90
9998;DHT22;5038;53.064;8.624;2023-02-01T12:09:51;6.10;99.90
9998;DHT22;5038;53.064;8.624;2023-02-01T12:12:26;6.00;99.90
9998;DHT22;5038;53.064;8.624;2023-02-01T12:15:17;6.00;99.90
9998;DHT22;5038;53.064;8.624;2023-02-01T12:18:16;6.10;99.90
9998;DHT22;5038;53.064;8.624;2023-02-01T12:21:03;6.00;99.90
9998;DHT22;5038;53.064;8.624;2023-02-01T12:23:46;5.90;99.90
9998;DHT22;5038;53.064;8.624;2023-02-01T12:29:41;5.40;99.90
9998;DHT22;5038;53.064;8.624;2023-02-01T12:32:25;5.10;99.90
9998;DHT22;5038;53.064;8.624;2023-02-01T12:35:22;4.90;99.90
9998;DHT22;5038;53.064;8.624;2023-02-01T12:38:05;4.80;99.90
9998;DHT22;5038;53.064;8.624;2023-02-01T12:40:50;4.70;99.90
9998;DHT22;5038;53.064;8.624;2023-02-01T12:43:22;4.60;99.90
9998;DHT22;5038;53.064;8.624;2023-02-01T12:45:55;4.60;99.90
9998;DHT22;5038;53.064;8.624;2023-02-01T12:48:29;4.50;99.90
9998;DHT22;5038;53.064;8.624;2023-02-01T12:51:04;4.50;99.90
9998;DHT22;5038;53.064;8.624;2023-02-01T12:53:45;4.50;99.90
9998;DHT22;5038;53.064;8.624;2023-02-01T12:56:19;4.50;99.90
9998;DHT22;5038;53.064;8.624;2023-02-01T12:58:51;4.60;99.90
9998;DHT22;5038;53.064;8.624;2023-02-01T13:01:25;4.60;99.90
9998;DHT22;5038;53.064;8.624;2023-02-01T13:04:02;4.70;99.90
9998;DHT22;5038;53.064;8.624;2023-02-01T13:06:37;4.70;99.90
9998;DHT22;5038;53.064;8.624;2023-02-01T13:09:13;4.70;99.90
9998;DHT22;5038;53.064;8.624;2023-02-01T13:11:44;4.80;99.90
9998;DHT22;5038;53.064;8.624;2023-02-01T13:14:23;4.80;99.90
9998;DHT22;5038;53.064;8.624;2023-02-01T13:16:59;4.90;99.90
9998;DHT22;5038;53.064;8.624;2023-02-01T13:19:30;4.90;99.90
9998;DHT22;5038;53.064;8.624;2023-02-01T13:22:05;5.00;99.90
9998;DHT22;5038;53.064;8.624;2023-02-01T13:24:38;5.00;99.90
9998;DHT22;5038;53.064;8.624;2023-02-01T13:27:11;5.10;99.90
9998;DHT22;5038;53.064;8.624;2023-02-01T13:29:46;5.10;99.90
9998;DHT22;5038;53.064;8.624;2023-02-01T13:38:51;5.30;99.90
9998;DHT22;5038;53.064;8.624;2023-02-01T13:41:28;5.30;99.90
9998;DHT22;5038;53.064;8.624;2023-02-01T13:43:59;5.40;99.90
9998;DHT22;5038;53.064;8.624;2023-02-01T13:46:29;5.40;99.90
9998;DHT22;5038;53.064;8.624;2023-02-01T13:49:00;5.40;99.90
9998;DHT22;5038;53.064;8.624;2023-02-01T13:51:35;5.50;99.90
9998;DHT22;5038;53.064;8.624;2023-02-01T13:54:05;5.50;99.90
9998;DHT22;5038;53.064;8.624;2023-02-01T13:56:41;5.50;99.90
9998;DHT22;5038;53.064;8.624;2023-02-01T13:59:36;5.60;99.90
9998;DHT22;5038;53.064;8.624;2023-02-01T14:08:35;5.60;99.90
9998;DHT22;5038;53.064;8.624;2023-02-01T14:11:05;5.60;99.90
9998;DHT22;5038;53.064;8.624;2023-02-01T14:13:35;5.60;99.90
9998;DHT22;5038;53.064;8.624;2023-02-01T14:16:14;5.70;99.90
9998;DHT22;5038;53.064;8.624;2023-02-01T14:18:59;5.70;99.90
9998;DHT22;5038;53.064;8.624;2023-02-01T14:21:29;5.70;99.90
9998;DHT22;5038;53.064;8.624;2023-02-01T14:24:01;5.70;99.90
9998;DHT22;5038;53.064;8.624;2023-02-01T14:26:44;5.70;99.90
9998;DHT22;5038;53.064;8.624;2023-02-01T14:29:24;5.80;99.90
9998;DHT22;5038;53.064;8.624;2023-02-01T14:32:00;5.80;99.90
9998;DHT22;5038;53.064;8.624;2023-02-01T14:34:35;5.80;99.90
9998;DHT22;5038;53.064;8.624;2023-02-01T14:37:12;5.90;99.90
9998;DHT22;5038;53.064;8.624;2023-02-01T14:39:58;5.90;99.90
9998;DHT22;5038;53.064;8.624;2023-02-01T14:42:31;6.00;99.90
9998;DHT22;5038;53.064;8.624;2023-02-01T14:48:41;6.00;99.90
9998;DHT22;5038;53.064;8.624;2023-02-01T14:51:13;6.10;99.90
9998;DHT22;5038;53.064;8.624;2023-02-01T14:53:42;6.10;99.90
9998;DHT22;5038;53.064;8.624;2023-02-01T14:56:16;6.20;99.90
9998;DHT22;5038;53.064;8.624;2023-02-01T14:58:52;6.20;99.90
9998;DHT22;5038;53.064;8.624;2023-02-01T15:01:26;6.30;99.90
9998;DHT22;5038;53.064;8.624;2023-02-01T15:04:01;6.30;99.90
9998;DHT22;5038;53.064;8.624;2023-02-01T15:06:35;6.40;99.90
9998;DHT22;5038;53.064;8.624;2023-02-01T15:09:09;6.40;99.90
9998;DHT22;5038;53.064;8.624;2023-02-01T15:11:58;6.50;99.90
9998;DHT22;5038;53.064;8.624;2023-02-01T15:14:29;6.60;99.90
9998;DHT22;5038;53.064;8.624;2023-02-01T15:16:57;6.60;99.90
9998;DHT22;5038;53.064;8.624;2023-02-01T15:19:29;6.70;99.90
9998;DHT22;5038;53.064;8.624;2023-02-01T15:21:59;6.70;99.90
9998;DHT22;5038;53.064;8.624;2023-02-01T15:24:28;6.80;99.90
9998;DHT22;5038;53.064;8.624;2023-02-01T15:27:03;6.80;99.90
9998;DHT22;5038;53.064;8.624;2023-02-01T15:29:33;6.80;99.90
9998;DHT22;5038;53.064;8.624;2023-02-01T15:32:01;6.80;99.90
9998;DHT22;5038;53.064;8.624;2023-02-01T15:34:48;6.80;99.90
9998;DHT22;5038;53.064;8.624;2023-02-01T15:37:17;6.90;99.90
9998;DHT22;5038;53.064;8.624;2023-02-01T15:40:18;6.80;99.90
9998;DHT22;5038;53.064;8.624;2023-02-01T15:42:51;6.80;99.90
9998;DHT22;5038;53.064;8.624;2023-02-01T15:45:25;6.80;99.90
9998;DHT22;5038;53.064;8.624;2023-02-01T15:47:56;6.80;99.90
9998;DHT22;5038;53.064;8.624;2023-02-01T15:50:24;6.80;99.90
9998;DHT22;5038;53.064;8.624;2023-02-01T15:52:55;6.80;99.90
9998;DHT22;5038;53.064;8.624;2023-02-01T15:55:31;6.80;99.90
9998;DHT22;5038;53.064;8.624;2023-02-01T15:58:05;6.90;99.90
9998;DHT22;5038;53.064;8.624;2023-02-01T16:00:43;6.90;99.90
9998;DHT22;5038;53.064;8.624;2023-02-01T16:03:26;6.90;99.90
9998;DHT22;5038;53.064;8.624;2023-02-01T16:05:56;6.90;99.90
9998;DHT22;5038;53.064;8.624;2023-02-01T16:08:26;6.80;99.90
9998;DHT22;5038;53.064;8.624;2023-02-01T16:11:00;6.80;99.90
9998;DHT22;5038;53.064;8.624;2023-02-01T16:13:29;6.80;99.90
9998;DHT22;5038;53.064;8.624;2023-02-01T16:15:59;6.60;99.90
9998;DHT22;5038;53.064;8.624;2023-02-01T16:18:27;6.40;99.90
9998;DHT22;5038;53.064;8.624;2023-02-01T16:20:55;6.30;99.90
9998;DHT22;5038;53.064;8.624;2023-02-01T16:23:23;6.20;99.90
9998;DHT22;5038;53.064;8.624;2023-02-01T16:25:52;6.10;99.90
9998;DHT22;5038;53.064;8.624;2023-02-01T16:28:21;6.00;99.90
9998;DHT22;5038;53.064;8.624;2023-02-01T16:30:49;6.00;99.90
9998;DHT22;5038;53.064;8.624;2023-02-01T16:33:20;5.90;99.90
9998;DHT22;5038;53.064;8.624;2023-02-01T16:35:50;5.90;99.90
9998;DHT22;5038;53.064;8.624;2023-02-01T16:38:20;5.80;99.90
9998;DHT22;5038;53.064;8.624;2023-02-01T16:40:50;5.70;99.90
9998;DHT22;5038;53.064;8.624;2023-02-01T16:43:19;5.60;99.90
9998;DHT22;5038;53.064;8.624;2023-02-01T16:45:49;5.50;99.90
9998;DHT22;5038;53.064;8.624;2023-02-01T16:48:22;5.40;99.90
9998;DHT22;5038;53.064;8.624;2023-02-01T16:50:53;5.40;99.90
9998;DHT22;5038;53.064;8.624;2023-02-01T16:53:23;5.30;99.90
9998;DHT22;5038;53.064;8.624;2023-02-01T16:55:51;5.30;99.90
9998;DHT22;5038;53.064;8.624;2023-02-01T16:58:20;5.30;99.90
9998;DHT22;5038;53.064;8.624;2023-02-01T17:00:48;5.30;99.90
9998;DHT22;5038;53.064;8.624;2023-02-01T17:03:17;5.30;99.90
9998;DHT22;5038;53.064;8.624;2023-02-01T17:05:49;5.30;99.90
9998;DHT22;5038;53.064;8.624;2023-02-01T17:08:23;5.30;99.90
9998;DHT22;5038;53.064;8.624;2023-02-01T17:10:52;5.30;99.90
9998;DHT22;5038;53.064;8.624;2023-02-01T17:13:20;5.30;99.90
9998;DHT22;5038;53.064;8.624;2023-02-01T17:15:50;5.30;99.90